createdAt,value
2022-11-05T16:00:44.213Z,21.30
2022-11-05T16:03:28.459Z,19.87
2022-11-05T16:06:02.208Z,18.38
2022-11-05T16:08:30.087Z,17.16
2022-11-05T16:11:05.428Z,16.20
2022-11-05T16:13:43.219Z,15.37
2022-11-05T16:16:23.567Z,14.63
2022-11-05T16:18:57.230Z,14.00
2022-11-05T16:21:25.235Z,13.43
2022-11-05T16:23:58.232Z,12.96
2022-11-05T16:29:37.119Z,12.22
2022-11-05T16:32:29.520Z,12.01
2022-11-05T16:34:59.962Z,11.83
2022-11-05T16:37:34.203Z,11.67
2022-11-05T16:40:02.121Z,11.54
2022-11-05T16:42:44.208Z,11.41
2022-11-05T16:45:13.869Z,11.30
2022-11-05T16:47:48.228Z,11.16
2022-11-05T16:50:23.210Z,11.08
2022-11-05T16:52:57.260Z,11.02
2022-11-05T16:55:24.925Z,10.97
2022-11-05T16:58:06.653Z,10.90
2022-11-05T17:00:40.736Z,10.83
2022-11-05T17:03:14.644Z,10.72
2022-11-05T17:05:48.233Z,10.66
2022-11-05T17:08:23.470Z,10.62
2022-11-05T17:10:52.057Z,10.56
2022-11-05T17:13:28.622Z,10.47
2022-11-05T17:15:55.875Z,10.36
2022-11-05T17:18:29.374Z,10.23
2022-11-05T17:20:57.114Z,10.15
2022-11-05T17:23:33.190Z,10.08
2022-11-05T17:26:03.424Z,10.00
2022-11-05T17:28:37.257Z,9.93
2022-11-05T17:31:15.331Z,10.15
2022-11-05T17:33:42.277Z,10.79
2022-11-05T17:36:19.201Z,11.50
2022-11-05T17:38:46.051Z,12.26
2022-11-05T17:41:15.097Z,12.97
2022-11-05T17:43:48.211Z,13.64
2022-11-05T17:46:18.972Z,14.25
2022-11-05T17:48:53.328Z,14.80
2022-11-05T17:51:28.267Z,15.28
2022-11-05T17:53:56.296Z,15.72
2022-11-05T17:56:34.492Z,16.12
2022-11-05T17:59:09.878Z,16.50
2022-11-05T18:01:48.517Z,16.84
2022-11-05T18:04:17.857Z,17.15
2022-11-05T18:06:44.820Z,17.44
2022-11-05T18:09:19.212Z,17.69
2022-11-05T18:11:46.617Z,17.95
2022-11-05T18:14:24.128Z,18.17
2022-11-05T18:16:59.287Z,18.40
2022-11-05T18:19:34.135Z,18.63
2022-11-05T18:22:10.360Z,18.84
